createdAt,value
2023-05-13T00:00:16.613Z,47.39
2023-05-13T00:02:45.130Z,47.11
2023-05-13T00:05:13.441Z,47.56
2023-05-13T00:07:42.545Z,47.17
2023-05-13T00:10:11.220Z,47.48
2023-05-13T00:12:39.606Z,47.61
2023-05-13T00:15:08.220Z,47.36
2023-05-13T00:17:36.486Z,48.09
2023-05-13T00:20:05.210Z,47.60
2023-05-13T00:22:33.705Z,48.05
2023-05-13T00:25:01.968Z,47.84
2023-05-13T00:27:30.164Z,48.39
2023-05-13T00:30:00.584Z,48.13
2023-05-13T00:32:29.295Z,48.54
2023-05-13T00:34:57.554Z,48.54
2023-05-13T00:37:25.782Z,48.96
2023-05-13T00:39:54.197Z,48.79
2023-05-13T00:42:22.481Z,48.78
2023-05-13T00:44:50.761Z,48.76
2023-05-13T00:47:19.186Z,48.58
2023-05-13T00:49:47.481Z,49.10
2023-05-13T00:52:15.871Z,49.01
2023-05-13T00:54:44.102Z,48.74
2023-05-13T00:57:12.329Z,48.89
2023-05-13T00:59:41.025Z,49.20
2023-05-13T01:02:28.611Z,49.14
2023-05-13T01:05:35.371Z,49.28
2023-05-13T01:08:18.731Z,49.34
2023-05-13T01:11:00.399Z,49.37
2023-05-13T01:13:33.038Z,49.28
2023-05-13T01:16:20.039Z,49.33
2023-05-13T01:18:59.805Z,49.18
2023-05-13T01:21:28.854Z,49.67
2023-05-13T01:23:57.350Z,49.52
2023-05-13T01:26:27.522Z,49.56
2023-05-13T01:28:55.950Z,49.72
2023-05-13T01:31:25.403Z,49.79
2023-05-13T01:33:54.291Z,49.71
2023-05-13T01:36:22.766Z,50.09
2023-05-13T01:38:52.293Z,50.13
2023-05-13T01:41:20.466Z,50.48
2023-05-13T01:43:49.108Z,50.89
2023-05-13T01:46:17.722Z,50.84
2023-05-13T01:48:45.961Z,50.89
2023-05-13T01:51:14.428Z,51.12
2023-05-13T01:53:42.638Z,51.40
2023-05-13T01:56:11.745Z,51.41
2023-05-13T01:58:39.921Z,51.81
2023-05-13T02:01:08.121Z,52.43
2023-05-13T02:03:37.168Z,52.19
2023-05-13T02:06:05.620Z,52.53
2023-05-13T02:08:33.829Z,52.75
2023-05-13T02:11:02.261Z,52.92
2023-05-13T02:13:30.795Z,53.23
2023-05-13T02:15:59.259Z,53.23
2023-05-13T02:18:27.559Z,53.27
2023-05-13T02:20:55.780Z,53.47
2023-05-13T02:23:24.102Z,53.24
2023-05-13T02:25:52.360Z,53.39
2023-05-13T02:28:20.600Z,53.29
2023-05-13T02:30:49.096Z,53.63
2023-05-13T02:33:17.336Z,53.63
2023-05-13T02:35:45.518Z,53.71
2023-05-13T02:38:13.988Z,53.72
2023-05-13T02:40:42.237Z,53.92
2023-05-13T02:43:10.437Z,54.10
2023-05-13T02:45:41.742Z,54.21
2023-05-13T02:48:11.825Z,54.47
2023-05-13T02:50:41.348Z,54.47
2023-05-13T02:53:09.669Z,54.53
2023-05-13T02:55:37.897Z,55.16
2023-05-13T02:58:06.169Z,55.36
2023-05-13T03:00:34.383Z,55.51
2023-05-13T03:03:02.693Z,55.87
2023-05-13T03:05:30.996Z,55.60
2023-05-13T03:07:59.208Z,56.25
2023-05-13T03:10:27.435Z,56.14
2023-05-13T03:12:55.761Z,56.59
2023-05-13T03:15:24.113Z,56.48
2023-05-13T03:17:52.406Z,56.66
2023-05-13T03:20:20.874Z,56.61
2023-05-13T03:22:49.527Z,57.00
2023-05-13T03:25:17.865Z,57.60
2023-05-13T03:27:46.234Z,57.52
2023-05-13T03:30:15.133Z,57.84
2023-05-13T03:32:43.463Z,57.61
2023-05-13T03:35:11.714Z,57.81
2023-05-13T03:37:39.965Z,58.04
2023-05-13T03:40:08.799Z,58.12
2023-05-13T03:42:37.088Z,58.45
2023-05-13T03:45:05.552Z,58.50
2023-05-13T03:47:33.817Z,58.56
2023-05-13T03:50:02.008Z,58.83
2023-05-13T03:52:30.166Z,58.94
2023-05-13T03:54:58.357Z,59.10
2023-05-13T03:57:26.724Z,59.31
2023-05-13T03:59:54.970Z,59.40
2023-05-13T04:02:24.858Z,59.74
2023-05-13T04:04:53.143Z,59.67
2023-05-13T04:07:21.435Z,59.72
2023-05-13T04:09:49.641Z,59.80
2023-05-13T04:12:19.016Z,60.19
2023-05-13T04:14:47.840Z,60.33
2023-05-13T04:17:16.238Z,60.32
2023-05-13T04:19:44.541Z,60.38
2023-05-13T04:22:12.823Z,60.44
2023-05-13T04:24:41.210Z,60.73
2023-05-13T04:27:09.378Z,60.85
2023-05-13T04:29:37.623Z,60.93
2023-05-13T04:32:06.433Z,61.22
2023-05-13T04:34:34.660Z,61.10
2023-05-13T04:37:02.823Z,61.33
2023-05-13T04:39:31.265Z,61.49
2023-05-13T04:41:59.464Z,61.40
2023-05-13T04:44:27.675Z,61.33
2023-05-13T04:46:55.864Z,61.46
2023-05-13T04:49:24.031Z,61.58
2023-05-13T04:51:52.563Z,61.61
2023-05-13T04:54:21.563Z,61.72
2023-05-13T04:56:49.970Z,61.78
2023-05-13T04:59:18.349Z,62.04
2023-05-13T05:01:47.144Z,62.13
2023-05-13T05:04:15.622Z,62.64
2023-05-13T05:06:43.848Z,62.82
2023-05-13T05:09:12.320Z,62.81
2023-05-13T05:11:40.535Z,63.01
2023-05-13T05:14:08.805Z,63.14
2023-05-13T05:16:37.071Z,63.28
2023-05-13T05:19:05.317Z,62.98
2023-05-13T05:21:33.506Z,63.22
2023-05-13T05:24:02.782Z,63.44
2023-05-13T05:26:31.111Z,63.75
2023-05-13T05:28:59.323Z,63.66
2023-05-13T05:31:28.389Z,63.71
2023-05-13T05:33:57.408Z,63.79
2023-05-13T05:36:25.683Z,63.85
2023-05-13T05:38:53.864Z,64.14
2023-05-13T05:41:22.943Z,63.97
2023-05-13T05:43:51.305Z,63.93
2023-05-13T05:46:19.639Z,63.81
2023-05-13T05:48:48.263Z,63.59
2023-05-13T05:51:16.765Z,64.44
2023-05-13T05:53:45.069Z,64.06
2023-05-13T05:56:13.367Z,64.18
2023-05-13T05:58:41.674Z,64.24
2023-05-13T06:01:09.917Z,64.28
2023-05-13T06:03:38.357Z,64.54
2023-05-13T06:06:06.862Z,64.31
2023-05-13T06:08:35.021Z,64.44
2023-05-13T06:11:03.215Z,64.53
2023-05-13T06:13:31.582Z,64.41
2023-05-13T06:15:59.824Z,64.73
2023-05-13T06:18:28.075Z,65.06
2023-05-13T06:20:56.314Z,65.09
2023-05-13T06:23:24.530Z,65.00
2023-05-13T06:25:52.798Z,65.10
2023-05-13T06:28:21.033Z,64.86
2023-05-13T06:30:49.453Z,65.30
2023-05-13T06:33:17.748Z,65.16
2023-05-13T06:35:49.001Z,65.53
2023-05-13T06:38:20.582Z,65.54
2023-05-13T06:40:49.217Z,65.97
2023-05-13T06:43:18.868Z,65.78
2023-05-13T06:45:47.114Z,65.80
2023-05-13T06:48:15.555Z,66.01
2023-05-13T06:50:43.756Z,65.96
2023-05-13T06:53:14.871Z,66.00
2023-05-13T06:55:43.436Z,66.30
2023-05-13T06:58:12.105Z,66.33
2023-05-13T07:00:41.908Z,66.25
2023-05-13T07:03:10.152Z,66.44
2023-05-13T07:05:38.455Z,66.49
2023-05-13T07:08:09.753Z,66.63
2023-05-13T07:10:38.096Z,66.77
2023-05-13T07:13:06.377Z,66.68
2023-05-13T07:15:34.604Z,66.67
2023-05-13T07:18:02.895Z,66.59
2023-05-13T07:20:31.382Z,66.41
2023-05-13T07:22:59.750Z,67.05
2023-05-13T07:25:28.071Z,66.96
2023-05-13T07:27:56.280Z,66.85
2023-05-13T07:30:24.940Z,66.87
2023-05-13T07:32:54.163Z,67.04
2023-05-13T07:35:24.076Z,67.13
2023-05-13T07:37:52.442Z,67.17
2023-05-13T07:40:21.873Z,67.13
2023-05-13T07:42:50.427Z,67.07
2023-05-13T07:45:18.712Z,67.34
2023-05-13T07:47:46.989Z,67.37
2023-05-13T07:50:15.389Z,67.42
2023-05-13T07:52:44.488Z,67.36
2023-05-13T07:55:12.720Z,67.61
2023-05-13T07:57:40.936Z,67.61
2023-05-13T08:00:09.735Z,67.75
2023-05-13T08:02:43.646Z,67.70
2023-05-13T08:05:13.113Z,67.89
2023-05-13T08:07:41.370Z,68.06
2023-05-13T08:10:09.835Z,67.84
2023-05-13T08:12:38.145Z,68.09
2023-05-13T08:15:07.033Z,68.21
2023-05-13T08:17:36.228Z,68.32
2023-05-13T08:20:04.652Z,68.48
2023-05-13T08:22:32.862Z,68.14
2023-05-13T08:25:01.927Z,68.21
2023-05-13T08:27:30.197Z,68.18
2023-05-13T08:29:58.420Z,68.31
2023-05-13T08:32:26.707Z,68.35
2023-05-13T08:34:54.987Z,68.55
2023-05-13T08:37:23.290Z,68.23
2023-05-13T08:39:51.592Z,68.16
2023-05-13T08:42:23.850Z,68.46
2023-05-13T08:44:54.115Z,68.78
2023-05-13T08:47:37.294Z,68.90
2023-05-13T08:50:06.408Z,68.67
2023-05-13T08:52:34.711Z,69.29
2023-05-13T08:55:03.336Z,69.05
2023-05-13T08:57:31.805Z,69.08
2023-05-13T08:59:59.990Z,69.31
2023-05-13T09:02:28.636Z,69.52
2023-05-13T09:04:58.592Z,69.31
2023-05-13T09:07:26.806Z,69.38
2023-05-13T09:09:55.249Z,69.83
2023-05-13T09:12:52.539Z,69.94
2023-05-13T09:15:27.703Z,70.11
2023-05-13T09:18:06.770Z,69.94
2023-05-13T09:20:36.161Z,69.80
2023-05-13T09:23:09.481Z,70.04
2023-05-13T09:25:41.174Z,69.87
2023-05-13T09:28:09.614Z,69.93
2023-05-13T09:30:42.077Z,70.38
2023-05-13T09:33:12.936Z,70.21
2023-05-13T09:35:43.062Z,70.23
2023-05-13T09:38:19.387Z,70.58
2023-05-13T09:40:59.260Z,70.42
2023-05-13T09:43:29.824Z,70.47
2023-05-13T09:46:01.759Z,70.19
2023-05-13T09:48:32.496Z,70.05
2023-05-13T09:51:01.524Z,70.37
2023-05-13T09:53:30.179Z,70.48
2023-05-13T09:56:00.766Z,70.60
2023-05-13T09:58:31.491Z,70.54
2023-05-13T10:01:00.455Z,70.78
2023-05-13T10:03:30.809Z,70.65
2023-05-13T10:06:03.276Z,70.76
2023-05-13T10:08:31.871Z,71.14
2023-05-13T10:11:00.710Z,70.90
2023-05-13T10:13:32.692Z,71.30
2023-05-13T10:16:01.208Z,71.33
2023-05-13T10:18:29.827Z,70.89
2023-05-13T10:20:58.770Z,70.80
2023-05-13T10:23:28.231Z,70.84
2023-05-13T10:25:57.160Z,71.06
2023-05-13T10:28:27.300Z,71.06
2023-05-13T10:30:55.486Z,71.04
2023-05-13T10:33:24.010Z,71.52
2023-05-13T10:36:09.308Z,71.53
2023-05-13T10:38:58.976Z,71.49
2023-05-13T10:41:55.314Z,71.20
2023-05-13T10:44:24.776Z,71.21
2023-05-13T10:46:53.274Z,71.75
2023-05-13T10:49:25.506Z,71.63
2023-05-13T10:51:53.866Z,71.67
2023-05-13T10:54:25.575Z,71.96
2023-05-13T10:57:00.697Z,71.57
2023-05-13T10:59:31.272Z,71.63
2023-05-13T11:02:03.571Z,71.41
2023-05-13T11:04:32.060Z,71.90
2023-05-13T11:07:17.412Z,71.55
2023-05-13T11:09:52.111Z,71.61
2023-05-13T11:12:20.338Z,71.90
2023-05-13T11:14:49.672Z,71.83
2023-05-13T11:17:21.488Z,72.17
2023-05-13T11:19:52.515Z,71.74
2023-05-13T11:22:22.918Z,71.94
2023-05-13T11:25:11.327Z,72.46
2023-05-13T11:27:42.285Z,72.50
2023-05-13T11:30:24.315Z,72.44
2023-05-13T11:32:56.984Z,72.29
2023-05-13T11:35:32.399Z,72.02
2023-05-13T11:38:02.576Z,72.24
2023-05-13T11:40:33.293Z,72.64
2023-05-13T11:43:02.557Z,72.45
2023-05-13T11:45:31.314Z,72.39
2023-05-13T11:47:59.915Z,72.41
2023-05-13T11:50:33.356Z,72.11
2023-05-13T11:53:02.907Z,72.33
2023-05-13T11:55:38.894Z,72.30
2023-05-13T11:58:07.129Z,72.61
2023-05-13T12:00:36.253Z,72.12
2023-05-13T12:03:12.489Z,72.60
2023-05-13T12:05:41.093Z,72.39
2023-05-13T12:08:10.841Z,72.56
2023-05-13T12:10:45.023Z,72.36
2023-05-13T12:13:13.754Z,72.11
2023-05-13T12:15:43.180Z,72.30
2023-05-13T12:18:11.559Z,72.38
2023-05-13T12:20:39.741Z,72.73
2023-05-13T12:23:07.989Z,72.60
2023-05-13T12:25:39.199Z,72.83
2023-05-13T12:28:21.568Z,72.94
2023-05-13T12:31:04.011Z,72.55
2023-05-13T12:33:34.478Z,72.67
2023-05-13T12:36:26.552Z,72.74
2023-05-13T12:39:01.711Z,73.02
2023-05-13T12:41:35.793Z,72.70
2023-05-13T12:44:10.566Z,72.55
2023-05-13T12:46:39.013Z,72.81
2023-05-13T12:49:07.353Z,72.57
2023-05-13T12:51:35.908Z,72.65
2023-05-13T12:54:04.078Z,72.73
2023-05-13T12:56:32.359Z,72.73
2023-05-13T12:59:00.596Z,72.55
2023-05-13T13:01:28.880Z,72.50
2023-05-13T13:03:57.179Z,72.51
2023-05-13T13:06:25.494Z,72.94
2023-05-13T13:08:53.712Z,72.58
2023-05-13T13:11:22.375Z,73.02
2023-05-13T13:13:51.735Z,73.07
2023-05-13T13:16:20.059Z,72.86
2023-05-13T13:18:48.709Z,73.06
2023-05-13T13:21:16.887Z,72.98
2023-05-13T13:23:45.199Z,73.07
2023-05-13T13:26:13.481Z,73.12
2023-05-13T13:28:41.697Z,73.02
2023-05-13T13:31:10.021Z,73.09
2023-05-13T13:33:38.201Z,73.02
2023-05-13T13:36:06.760Z,72.77
2023-05-13T13:38:34.953Z,73.22
2023-05-13T13:41:03.149Z,73.07
2023-05-13T13:43:31.368Z,72.83
2023-05-13T13:45:59.618Z,72.43
2023-05-13T13:48:27.872Z,72.50
2023-05-13T13:50:56.126Z,72.81
2023-05-13T13:53:24.343Z,72.63
2023-05-13T13:55:52.534Z,72.68
2023-05-13T13:58:20.776Z,72.87
2023-05-13T14:00:49.000Z,72.61
2023-05-13T14:03:17.253Z,72.48
2023-05-13T14:05:45.677Z,72.57
2023-05-13T14:08:13.840Z,72.24
2023-05-13T14:10:42.052Z,72.30
2023-05-13T14:13:10.268Z,72.07
2023-05-13T14:15:39.883Z,72.05
2023-05-13T14:18:09.203Z,71.90
2023-05-13T14:20:38.885Z,72.02
2023-05-13T14:23:07.052Z,71.91
2023-05-13T14:25:35.377Z,71.60
2023-05-13T14:28:03.630Z,71.72
2023-05-13T14:30:31.855Z,71.57
2023-05-13T14:33:01.524Z,71.40
2023-05-13T14:35:29.960Z,71.46
2023-05-13T14:37:58.210Z,71.33
2023-05-13T14:40:26.457Z,71.35
2023-05-13T14:42:54.672Z,71.42
2023-05-13T14:45:23.744Z,71.29
2023-05-13T14:47:54.601Z,71.26
2023-05-13T14:50:23.107Z,71.41
2023-05-13T14:52:51.703Z,71.24
2023-05-13T14:55:19.935Z,71.26
2023-05-13T14:57:48.666Z,71.08
2023-05-13T15:00:17.477Z,71.00
2023-05-13T15:02:45.773Z,70.92
2023-05-13T15:05:14.056Z,70.79
2023-05-13T15:07:42.681Z,70.76
2023-05-13T15:10:11.313Z,70.78
2023-05-13T15:12:39.531Z,70.74
2023-05-13T15:15:08.339Z,70.63
2023-05-13T15:17:37.332Z,70.57
2023-05-13T15:20:06.274Z,70.23
2023-05-13T15:22:34.517Z,70.32
2023-05-13T15:25:02.893Z,69.87
2023-05-13T15:27:31.263Z,69.97
2023-05-13T15:29:59.453Z,69.87
2023-05-13T15:32:27.744Z,69.64
2023-05-13T15:34:55.992Z,69.51
2023-05-13T15:37:24.178Z,69.24
2023-05-13T15:39:52.403Z,68.83
2023-05-13T15:42:20.585Z,68.68
2023-05-13T15:44:48.766Z,68.65
2023-05-13T15:47:17.045Z,68.72
2023-05-13T15:49:45.330Z,68.73
2023-05-13T15:52:13.607Z,68.37
2023-05-13T15:54:41.816Z,68.15
2023-05-13T15:57:10.007Z,68.04
2023-05-13T15:59:38.196Z,67.95
2023-05-13T16:02:06.448Z,67.68
2023-05-13T16:04:34.839Z,67.73
2023-05-13T16:07:03.372Z,67.58
2023-05-13T16:09:31.587Z,67.28
2023-05-13T16:11:59.767Z,67.29
2023-05-13T16:14:28.412Z,67.15
2023-05-13T16:16:56.878Z,66.86
2023-05-13T16:19:25.032Z,66.81
2023-05-13T16:21:53.259Z,66.72
2023-05-13T16:24:21.609Z,66.11
2023-05-13T16:26:50.257Z,66.29
2023-05-13T16:29:18.757Z,66.22
2023-05-13T16:31:47.048Z,66.23
2023-05-13T16:34:15.591Z,65.58
2023-05-13T16:36:43.764Z,65.23
2023-05-13T16:39:12.052Z,64.86
2023-05-13T16:41:41.107Z,64.79
2023-05-13T16:44:09.323Z,64.87
2023-05-13T16:46:37.505Z,64.38
2023-05-13T16:49:05.710Z,64.25
2023-05-13T16:51:33.978Z,64.35
2023-05-13T16:54:02.241Z,64.37
2023-05-13T16:56:32.108Z,63.87
2023-05-13T16:59:00.438Z,63.34
2023-05-13T17:01:28.688Z,62.95
2023-05-13T17:03:56.898Z,62.79
2023-05-13T17:06:25.055Z,63.05
2023-05-13T17:08:53.254Z,62.68
2023-05-13T17:11:22.520Z,62.42
2023-05-13T17:13:51.017Z,62.04
2023-05-13T17:16:19.247Z,62.10
2023-05-13T17:18:47.484Z,61.80
2023-05-13T17:21:15.653Z,61.50
2023-05-13T17:23:43.832Z,61.22
2023-05-13T17:26:12.206Z,61.16
2023-05-13T17:28:42.936Z,60.69
2023-05-13T17:31:11.118Z,60.69
2023-05-13T17:33:39.357Z,60.34
2023-05-13T17:36:07.779Z,60.45
2023-05-13T17:38:35.958Z,60.23
2023-05-13T17:41:04.309Z,60.29
2023-05-13T17:43:32.504Z,59.73
2023-05-13T17:46:00.753Z,59.58
2023-05-13T17:48:29.373Z,59.12
2023-05-13T17:50:58.805Z,58.16
2023-05-13T17:53:27.231Z,57.78
2023-05-13T17:55:55.554Z,57.93
2023-05-13T17:58:23.753Z,57.80
2023-05-13T18:00:52.001Z,57.45
2023-05-13T18:03:22.460Z,56.91
2023-05-13T18:05:50.786Z,56.63
2023-05-13T18:08:19.083Z,55.90
2023-05-13T18:10:48.573Z,55.65
2023-05-13T18:13:16.861Z,56.12
2023-05-13T18:15:45.062Z,55.52
2023-05-13T18:18:14.196Z,55.47
2023-05-13T18:20:42.941Z,55.23
2023-05-13T18:23:11.263Z,55.17
2023-05-13T18:25:52.150Z,54.83
2023-05-13T18:28:23.733Z,55.08
2023-05-13T18:30:52.051Z,54.62
2023-05-13T18:33:25.611Z,54.85
2023-05-13T18:35:54.057Z,54.28
2023-05-13T18:38:22.262Z,53.52
2023-05-13T18:40:50.565Z,53.58
2023-05-13T18:43:18.753Z,53.42
2023-05-13T18:45:47.043Z,52.97
2023-05-13T18:48:15.331Z,52.34
2023-05-13T18:50:43.563Z,51.94
2023-05-13T18:53:11.783Z,51.67
2023-05-13T18:55:40.194Z,51.49
2023-05-13T18:58:08.381Z,51.53
2023-05-13T19:00:38.239Z,50.31
2023-05-13T19:03:06.826Z,50.15
2023-05-13T19:05:35.219Z,49.02
2023-05-13T19:08:04.144Z,49.54
2023-05-13T19:10:36.906Z,49.17
2023-05-13T19:13:08.022Z,49.02
2023-05-13T19:15:36.771Z,48.85
2023-05-13T19:18:05.068Z,48.55
2023-05-13T19:20:33.353Z,48.55
2023-05-13T19:23:01.668Z,47.84
2023-05-13T19:25:30.114Z,47.89
2023-05-13T19:27:58.415Z,47.04
2023-05-13T19:30:26.624Z,46.52
2023-05-13T19:32:54.988Z,46.39
2023-05-13T19:35:24.268Z,45.88
2023-05-13T19:37:52.523Z,46.00
2023-05-13T19:40:20.994Z,45.30
2023-05-13T19:42:50.519Z,44.91
2023-05-13T19:45:22.345Z,45.01
2023-05-13T19:47:54.088Z,44.54
2023-05-13T19:50:22.832Z,43.98
2023-05-13T19:52:51.228Z,43.91
2023-05-13T19:55:19.580Z,43.35
2023-05-13T19:57:48.617Z,43.53
2023-05-13T20:00:17.717Z,43.76
2023-05-13T20:02:46.075Z,42.75
2023-05-13T20:05:14.363Z,42.02
2023-05-13T20:07:42.556Z,41.48
2023-05-13T20:10:11.721Z,41.19
2023-05-13T20:12:40.076Z,40.97
2023-05-13T20:15:08.579Z,41.11
2023-05-13T20:17:36.824Z,40.97
2023-05-13T20:20:05.964Z,40.13
2023-05-13T20:22:34.177Z,40.20
2023-05-13T20:25:02.450Z,39.82
2023-05-13T20:27:30.776Z,39.22
2023-05-13T20:30:00.951Z,38.82
2023-05-13T20:32:29.257Z,38.33
2023-05-13T20:34:57.525Z,38.01
2023-05-13T20:37:25.722Z,37.69
2023-05-13T20:39:53.882Z,37.28
2023-05-13T20:42:25.056Z,37.29
2023-05-13T20:44:53.305Z,37.02
2023-05-13T20:47:22.336Z,36.62
2023-05-13T20:49:50.898Z,36.16
2023-05-13T20:52:19.159Z,35.63
2023-05-13T20:54:47.386Z,35.47
2023-05-13T20:57:15.649Z,34.75
2023-05-13T20:59:43.898Z,35.06
2023-05-13T21:02:12.178Z,34.95
2023-05-13T21:04:40.559Z,34.93
2023-05-13T21:07:08.786Z,34.26
2023-05-13T21:09:36.993Z,34.20
2023-05-13T21:12:05.452Z,33.61
2023-05-13T21:14:33.964Z,33.40
2023-05-13T21:17:04.243Z,32.47
2023-05-13T21:19:32.494Z,32.64
2023-05-13T21:22:02.434Z,32.48
2023-05-13T21:24:30.644Z,32.33
2023-05-13T21:26:58.847Z,32.15
2023-05-13T21:29:27.188Z,32.61
2023-05-13T21:31:55.543Z,31.56
2023-05-13T21:34:23.844Z,31.35
2023-05-13T21:36:53.841Z,31.10
2023-05-13T21:39:22.022Z,31.84
2023-05-13T21:41:50.558Z,31.04
2023-05-13T21:44:18.733Z,29.83
2023-05-13T21:46:46.995Z,30.33
2023-05-13T21:49:15.222Z,29.83
2023-05-13T21:51:43.428Z,30.46
2023-05-13T21:54:11.768Z,30.94
2023-05-13T21:56:39.981Z,30.88
2023-05-13T21:59:08.203Z,30.48
2023-05-13T22:01:36.527Z,30.25
2023-05-13T22:04:04.776Z,29.40
2023-05-13T22:06:34.338Z,30.65
2023-05-13T22:09:02.638Z,30.83
2023-05-13T22:11:30.913Z,30.58
2023-05-13T22:14:01.149Z,30.27
2023-05-13T22:16:29.490Z,29.96
2023-05-13T22:19:00.555Z,30.22
2023-05-13T22:21:28.828Z,29.72
2023-05-13T22:23:57.171Z,29.99
2023-05-13T22:26:25.414Z,29.87
2023-05-13T22:28:53.743Z,29.52
2023-05-13T22:31:22.270Z,29.71
2023-05-13T22:33:50.744Z,29.49
2023-05-13T22:36:18.982Z,29.33
2023-05-13T22:38:47.415Z,29.51
2023-05-13T22:41:15.627Z,29.13
2023-05-13T22:43:43.812Z,29.39
2023-05-13T22:46:12.099Z,29.40
2023-05-13T22:48:40.348Z,28.94
2023-05-13T22:51:08.604Z,29.69
2023-05-13T22:53:36.872Z,29.81
2023-05-13T22:56:05.200Z,29.17
2023-05-13T22:58:33.390Z,29.00
2023-05-13T23:01:01.605Z,29.63
2023-05-13T23:03:29.910Z,29.69
2023-05-13T23:05:58.113Z,28.79
2023-05-13T23:08:26.524Z,29.73
2023-05-13T23:10:54.723Z,29.54
2023-05-13T23:13:22.937Z,29.66
2023-05-13T23:15:51.326Z,28.84
2023-05-13T23:18:19.611Z,28.96
2023-05-13T23:20:56.516Z,29.49
2023-05-13T23:23:25.074Z,30.17
2023-05-13T23:25:53.325Z,29.38
2023-05-13T23:28:21.563Z,29.86
2023-05-13T23:30:57.446Z,30.02
2023-05-13T23:33:25.668Z,30.33
2023-05-13T23:35:55.147Z,30.46
2023-05-13T23:38:24.313Z,30.48
2023-05-13T23:40:52.591Z,29.78
2023-05-13T23:43:20.898Z,29.99
2023-05-13T23:45:49.490Z,30.28
2023-05-13T23:48:17.789Z,29.91
2023-05-13T23:50:45.987Z,29.74
2023-05-13T23:53:14.238Z,30.21
2023-05-13T23:55:42.403Z,30.00
2023-05-13T23:58:10.597Z,30.68
